createdAt,value
2019-02-28T00:03:26.955Z,8
2019-02-28T00:08:27.902Z,7
2019-02-28T00:13:30.365Z,7
2019-02-28T00:18:32.795Z,6
2019-02-28T00:23:35.277Z,7
2019-02-28T00:28:37.719Z,7
2019-02-28T00:33:40.185Z,7
2019-02-28T00:38:42.647Z,8
2019-02-28T00:43:45.151Z,8
2019-02-28T00:48:47.553Z,5
2019-02-28T00:53:50.037Z,3
2019-02-28T00:58:52.522Z,3
2019-02-28T01:03:57.938Z,3
2019-02-28T01:08:57.453Z,4
2019-02-28T01:14:01.475Z,3
2019-02-28T01:19:09.021Z,4
2019-02-28T01:24:04.782Z,4
2019-02-28T01:29:07.228Z,3
2019-02-28T01:34:09.769Z,4
2019-02-28T01:39:12.150Z,4
2019-02-28T01:44:14.618Z,5
2019-02-28T01:49:17.061Z,4
2019-02-28T01:54:25.101Z,5
2019-02-28T01:59:26.967Z,4
2019-02-28T02:04:29.429Z,6
2019-02-28T02:09:27.011Z,4
2019-02-28T02:14:29.403Z,5
2019-02-28T02:19:31.865Z,6
2019-02-28T02:24:34.300Z,6
2019-02-28T02:29:37.105Z,6
2019-02-28T02:34:39.218Z,6
2019-02-28T02:39:41.706Z,6
2019-02-28T02:44:44.099Z,5
2019-02-28T02:49:46.580Z,6
2019-02-28T02:54:52.037Z,6
2019-02-28T02:59:51.521Z,6
2019-02-28T03:04:57.741Z,6
2019-02-28T03:09:56.379Z,6
2019-02-28T03:14:58.851Z,6
2019-02-28T03:20:07.314Z,6
2019-02-28T03:25:03.757Z,7
2019-02-28T03:30:11.289Z,6
2019-02-28T03:35:08.715Z,6
2019-02-28T03:40:11.125Z,6
2019-02-28T03:45:13.619Z,5
2019-02-28T03:50:16.077Z,5
2019-02-28T03:55:18.510Z,6
2019-02-28T04:00:32.255Z,6
2019-02-28T04:05:27.912Z,5
2019-02-28T04:10:25.892Z,6
2019-02-28T04:15:28.368Z,7
2019-02-28T04:20:35.866Z,7
2019-02-28T04:25:33.258Z,8
2019-02-28T04:30:42.158Z,9
2019-02-28T04:35:38.236Z,7
2019-02-28T04:40:40.653Z,7
2019-02-28T04:45:43.080Z,7
2019-02-28T04:50:45.532Z,7
2019-02-28T04:55:52.988Z,7
2019-02-28T05:00:55.454Z,6
2019-02-28T05:05:57.898Z,8
2019-02-28T05:10:55.798Z,7
2019-02-28T05:15:57.925Z,7
2019-02-28T05:21:00.348Z,10
2019-02-28T05:26:02.830Z,9
2019-02-28T05:31:05.249Z,8
2019-02-28T05:36:07.710Z,8
2019-02-28T05:41:12.091Z,7
2019-02-28T05:46:12.609Z,8
2019-02-28T05:51:20.023Z,8
2019-02-28T05:56:17.601Z,14
2019-02-28T06:01:20.022Z,17
2019-02-28T06:06:22.445Z,9
2019-02-28T06:11:24.927Z,10
2019-02-28T06:16:27.367Z,8
2019-02-28T06:21:29.774Z,8
2019-02-28T06:26:37.229Z,9
2019-02-28T06:31:34.750Z,6
2019-02-28T06:36:37.264Z,9
2019-02-28T06:41:40.690Z,10
2019-02-28T06:46:42.123Z,11
2019-02-28T06:51:44.545Z,13
2019-02-28T06:56:47.003Z,13
2019-02-28T07:01:49.500Z,12
2019-02-28T07:06:51.939Z,11
2019-02-28T07:11:55.641Z,12
2019-02-28T07:16:56.844Z,11
2019-02-28T07:22:04.253Z,14
2019-02-28T07:27:01.898Z,16
2019-02-28T07:32:04.267Z,16
2019-02-28T07:37:06.710Z,18
2019-02-28T07:42:14.078Z,18
2019-02-28T07:47:17.333Z,18
2019-02-28T07:52:14.071Z,17
2019-02-28T07:57:22.496Z,17
2019-02-28T08:02:18.981Z,19
2019-02-28T08:07:21.457Z,19
2019-02-28T08:12:23.913Z,22
2019-02-28T08:17:31.327Z,20
2019-02-28T08:22:28.842Z,19
2019-02-28T08:27:31.278Z,18
2019-02-28T08:32:34.003Z,22
2019-02-28T08:37:36.178Z,23
2019-02-28T08:42:39.579Z,22
2019-02-28T08:47:41.093Z,22
2019-02-28T08:52:43.521Z,23
2019-02-28T08:57:54.339Z,23
2019-02-28T09:02:52.113Z,21
2019-02-28T09:07:51.887Z,20
2019-02-28T09:12:53.406Z,19
2019-02-28T09:17:59.318Z,19
2019-02-28T09:23:03.338Z,19
2019-02-28T09:28:00.770Z,19
2019-02-28T09:33:03.257Z,22
2019-02-28T09:38:07.310Z,20
2019-02-28T09:43:08.141Z,23
2019-02-28T09:48:10.568Z,22
2019-02-28T09:53:16.431Z,21
2019-02-28T09:58:15.507Z,22
2019-02-28T10:03:18.536Z,22
2019-02-28T10:08:21.758Z,21
2019-02-28T10:13:22.863Z,22
2019-02-28T10:18:25.387Z,21
2019-02-28T10:23:27.867Z,19
2019-02-28T10:28:30.242Z,19
2019-02-28T10:33:32.693Z,18
2019-02-28T10:38:35.155Z,18
2019-02-28T10:43:37.608Z,19
2019-02-28T10:48:50.395Z,20
2019-02-28T10:53:42.595Z,19
2019-02-28T10:58:47.098Z,18
2019-02-28T11:03:47.523Z,19
2019-02-28T11:08:49.918Z,21
2019-02-28T11:13:52.410Z,19
2019-02-28T11:18:54.836Z,19
2019-02-28T11:23:57.327Z,19
2019-02-28T11:29:02.783Z,20
2019-02-28T11:34:02.345Z,20
2019-02-28T11:39:04.690Z,21
2019-02-28T11:49:09.602Z,22
2019-02-28T11:54:12.396Z,22
2019-02-28T11:59:14.582Z,21
2019-02-28T12:04:16.956Z,22
2019-02-28T12:09:20.036Z,22
2019-02-28T12:14:21.894Z,22
2019-02-28T12:19:24.447Z,22
2019-02-28T12:24:29.330Z,22
2019-02-28T12:29:29.258Z,23
2019-02-28T12:34:31.722Z,22
2019-02-28T12:39:36.286Z,23
2019-02-28T12:44:36.633Z,24
2019-02-28T12:49:39.133Z,22
2019-02-28T12:54:41.551Z,24
2019-02-28T12:59:45.796Z,22
2019-02-28T13:04:46.691Z,23
2019-02-28T13:09:51.401Z,23
2019-02-28T13:14:51.449Z,22
2019-02-28T13:19:56.490Z,22
2019-02-28T13:24:56.400Z,24
2019-02-28T13:29:58.843Z,23
2019-02-28T13:35:02.834Z,25
2019-02-28T13:40:04.222Z,27
2019-02-28T13:45:13.200Z,26
2019-02-28T13:50:08.620Z,26
2019-02-28T13:55:14.176Z,24
2019-02-28T14:00:13.564Z,23
2019-02-28T14:05:16.010Z,27
2019-02-28T14:10:18.460Z,27
2019-02-28T14:15:20.950Z,25
2019-02-28T14:20:24.348Z,24
2019-02-28T14:25:25.822Z,23
2019-02-28T14:30:28.268Z,24
2019-02-28T14:35:33.836Z,25
2019-02-28T14:40:33.212Z,26
2019-02-28T14:45:38.964Z,25
2019-02-28T14:50:38.254Z,25
2019-02-28T14:55:40.599Z,25
2019-02-28T15:00:43.429Z,25
2019-02-28T15:05:45.534Z,24
2019-02-28T15:10:47.930Z,25
2019-02-28T15:15:53.069Z,24
2019-02-28T15:20:52.852Z,25
2019-02-28T15:25:55.362Z,23
2019-02-28T15:30:57.766Z,25
2019-02-28T15:36:00.312Z,25
2019-02-28T15:41:02.787Z,27
2019-02-28T15:46:05.138Z,25
2019-02-28T15:51:07.601Z,24
2019-02-28T15:56:13.151Z,25
2019-02-28T16:01:13.974Z,26
2019-02-28T16:06:16.090Z,26
2019-02-28T16:11:17.443Z,24
2019-02-28T16:16:21.381Z,27
2019-02-28T16:21:22.351Z,28
2019-02-28T16:26:24.923Z,28
2019-02-28T16:31:27.282Z,27
2019-02-28T16:36:29.718Z,25
2019-02-28T16:41:33.627Z,29
2019-02-28T16:46:34.682Z,30
2019-02-28T16:51:38.590Z,29
2019-02-28T16:56:39.618Z,30
2019-02-28T17:01:42.014Z,27
2019-02-28T17:06:44.474Z,32
2019-02-28T17:11:46.974Z,31
2019-02-28T17:16:51.395Z,31
2019-02-28T17:21:52.246Z,31
2019-02-28T17:26:54.510Z,32
2019-02-28T17:31:56.745Z,33
2019-02-28T17:36:59.264Z,31
2019-02-28T17:42:08.235Z,31
2019-02-28T17:47:04.117Z,31
2019-02-28T17:52:06.651Z,30
2019-02-28T17:57:09.099Z,30
2019-02-28T18:02:11.532Z,33
2019-02-28T18:07:13.968Z,35
2019-02-28T18:12:16.461Z,33
2019-02-28T18:17:18.890Z,34
2019-02-28T18:22:21.368Z,31
2019-02-28T18:27:23.858Z,33
2019-02-28T18:32:26.280Z,35
2019-02-28T18:37:28.691Z,32
2019-02-28T18:42:36.485Z,34
2019-02-28T18:47:35.872Z,35
2019-02-28T18:52:36.087Z,37
2019-02-28T18:57:38.552Z,33
2019-02-28T19:02:41.004Z,35
2019-02-28T19:07:43.438Z,34
2019-02-28T19:12:45.955Z,34
2019-02-28T19:17:48.416Z,34
2019-02-28T19:22:50.808Z,34
2019-02-28T19:27:53.264Z,35
2019-02-28T19:32:55.872Z,36
2019-02-28T19:37:58.407Z,36
2019-02-28T19:43:00.671Z,36
2019-02-28T19:48:03.086Z,40
2019-02-28T19:53:05.577Z,35
2019-02-28T19:58:08.045Z,36
2019-02-28T20:03:10.545Z,37
2019-02-28T20:08:12.924Z,36
2019-02-28T20:13:15.442Z,37
2019-02-28T20:18:17.939Z,39
2019-02-28T20:23:20.286Z,37
2019-02-28T20:28:22.777Z,36
2019-02-28T20:33:25.254Z,32
2019-02-28T20:38:27.682Z,84
2019-02-28T20:43:30.122Z,34
2019-02-28T20:48:32.592Z,29
2019-02-28T20:53:35.063Z,27
2019-02-28T20:58:37.567Z,26
2019-02-28T21:03:39.982Z,28
2019-02-28T21:08:42.414Z,28
2019-02-28T21:13:44.902Z,27
2019-02-28T21:18:47.485Z,27
2019-02-28T21:23:49.811Z,28
2019-02-28T21:28:52.247Z,30
2019-02-28T21:33:54.710Z,32
2019-02-28T21:38:57.152Z,35
2019-02-28T21:43:59.655Z,36
2019-02-28T21:49:02.155Z,42
2019-02-28T21:54:04.607Z,42
2019-02-28T21:59:07.006Z,46
2019-02-28T22:04:09.514Z,42
2019-02-28T22:09:11.914Z,48
2019-02-28T22:14:14.359Z,45
2019-02-28T22:19:16.832Z,44
2019-02-28T22:24:19.313Z,43
2019-02-28T22:29:21.793Z,39
2019-02-28T22:34:24.203Z,36
2019-02-28T22:39:26.647Z,44
2019-02-28T22:44:29.134Z,50
2019-02-28T22:49:33.555Z,51
2019-02-28T22:54:34.023Z,57
2019-02-28T22:59:36.480Z,66
2019-02-28T23:04:39.312Z,74
2019-02-28T23:09:41.477Z,74
2019-02-28T23:14:43.886Z,72
2019-02-28T23:19:46.378Z,67
2019-02-28T23:24:48.767Z,65
2019-02-28T23:29:51.229Z,61
2019-02-28T23:34:53.684Z,64
2019-02-28T23:39:56.138Z,59
2019-02-28T23:44:58.624Z,58
2019-02-28T23:50:01.047Z,53
2019-02-28T23:55:03.514Z,54
